sensor_id;sensor_type;location;lat;lon;timestamp;pressure;altitude;pressure_sealevel;temperature;humidity
69223;BME280;56514;51.816;-0.026;2023-03-12T00:00:58;100061.59;;;6.94;72.76
69223;BME280;56514;51.816;-0.026;2023-03-12T00:04:03;100051.84;;;6.96;72.85
69223;BME280;56514;51.816;-0.026;2023-03-12T00:07:12;100044.91;;;6.95;73.07
69223;BME280;56514;51.816;-0.026;2023-03-12T00:10:21;100032.75;;;6.94;73.19
69223;BME280;56514;51.816;-0.026;2023-03-12T00:13:30;100038.75;;;6.96;73.13
69223;BME280;56514;51.816;-0.026;2023-03-12T00:16:35;100047.88;;;7.03;73.07
69223;BME280;56514;51.816;-0.026;2023-03-12T00:19:44;100034.88;;;7.01;73.21
69223;BME280;56514;51.816;-0.026;2023-03-12T00:22:53;100038.25;;;7.03;73.45
69223;BME280;56514;51.816;-0.026;2023-03-12T00:26:05;100035.44;;;7.06;73.48
69223;BME280;56514;51.816;-0.026;2023-03-12T00:29:15;100044.66;;;7.12;73.81
69223;BME280;56514;51.816;-0.026;2023-03-12T00:32:24;100038.59;;;7.11;74.47
69223;BME280;56514;51.816;-0.026;2023-03-12T00:35:34;100037.75;;;7.11;74.91
69223;BME280;56514;51.816;-0.026;2023-03-12T00:38:43;100041.59;;;7.05;75.72
69223;BME280;56514;51.816;-0.026;2023-03-12T00:41:53;100034.38;;;7.09;75.31
69223;BME280;56514;51.816;-0.026;2023-03-12T00:44:42;100037.56;;;7.14;75.85
69223;BME280;56514;51.816;-0.026;2023-03-12T00:47:27;100025.91;;;7.18;75.82
69223;BME280;56514;51.816;-0.026;2023-03-12T00:50:12;100031.06;;;7.19;75.81
69223;BME280;56514;51.816;-0.026;2023-03-12T00:52:57;100034.88;;;7.28;76.17
69223;BME280;56514;51.816;-0.026;2023-03-12T00:55:42;100020.41;;;7.35;76.37
69223;BME280;56514;51.816;-0.026;2023-03-12T00:58:27;100026.31;;;7.39;76.23
69223;BME280;56514;51.816;-0.026;2023-03-12T01:01:12;100026.72;;;7.45;76.14
69223;BME280;56514;51.816;-0.026;2023-03-12T01:03:56;100037.66;;;7.52;75.66
69223;BME280;56514;51.816;-0.026;2023-03-12T01:06:43;100040.63;;;7.60;75.33
69223;BME280;56514;51.816;-0.026;2023-03-12T01:09:27;100035.72;;;7.68;75.61
69223;BME280;56514;51.816;-0.026;2023-03-12T01:12:12;100037.28;;;7.70;76.18
69223;BME280;56514;51.816;-0.026;2023-03-12T01:14:57;100036.13;;;7.74;76.89
69223;BME280;56514;51.816;-0.026;2023-03-12T01:17:42;100028.25;;;7.74;77.35
69223;BME280;56514;51.816;-0.026;2023-03-12T01:20:27;100027.63;;;7.83;76.89
69223;BME280;56514;51.816;-0.026;2023-03-12T01:23:13;100031.22;;;7.82;77.50
69223;BME280;56514;51.816;-0.026;2023-03-12T01:25:58;100032.78;;;7.85;77.94
69223;BME280;56514;51.816;-0.026;2023-03-12T01:28:43;100037.53;;;7.92;77.79
69223;BME280;56514;51.816;-0.026;2023-03-12T01:31:28;100045.91;;;7.97;78.09
69223;BME280;56514;51.816;-0.026;2023-03-12T01:34:13;100043.94;;;8.01;78.38
69223;BME280;56514;51.816;-0.026;2023-03-12T01:36:57;100042.25;;;8.00;78.81
69223;BME280;56514;51.816;-0.026;2023-03-12T01:39:43;100029.31;;;8.09;79.15
69223;BME280;56514;51.816;-0.026;2023-03-12T01:42:27;100028.72;;;8.31;79.10
69223;BME280;56514;51.816;-0.026;2023-03-12T01:48:40;100016.00;;;8.50;79.40
69223;BME280;56514;51.816;-0.026;2023-03-12T01:51:34;100000.00;;;8.53;79.79
69223;BME280;56514;51.816;-0.026;2023-03-12T01:54:31;99992.13;;;8.53;80.15
69223;BME280;56514;51.816;-0.026;2023-03-12T01:57:20;99985.69;;;8.57;80.55
69223;BME280;56514;51.816;-0.026;2023-03-12T02:00:10;99994.31;;;8.59;80.66
69223;BME280;56514;51.816;-0.026;2023-03-12T02:03:00;100014.13;;;8.75;79.85
69223;BME280;56514;51.816;-0.026;2023-03-12T02:05:58;100016.44;;;8.80;79.99
69223;BME280;56514;51.816;-0.026;2023-03-12T02:08:45;100016.44;;;8.80;80.72
69223;BME280;56514;51.816;-0.026;2023-03-12T02:11:31;100018.28;;;8.90;80.45
69223;BME280;56514;51.816;-0.026;2023-03-12T02:14:16;100018.41;;;8.89;80.48
69223;BME280;56514;51.816;-0.026;2023-03-12T02:17:01;100022.59;;;8.91;80.25
69223;BME280;56514;51.816;-0.026;2023-03-12T02:23:01;100027.25;;;8.88;79.88
69223;BME280;56514;51.816;-0.026;2023-03-12T02:25:50;100021.22;;;8.99;79.55
69223;BME280;56514;51.816;-0.026;2023-03-12T02:28:37;100025.94;;;8.93;79.64
69223;BME280;56514;51.816;-0.026;2023-03-12T02:31:32;100023.88;;;8.86;80.29
69223;BME280;56514;51.816;-0.026;2023-03-12T02:34:19;100025.50;;;8.76;80.52
69223;BME280;56514;51.816;-0.026;2023-03-12T02:37:03;100017.66;;;8.87;80.21
69223;BME280;56514;51.816;-0.026;2023-03-12T02:40:04;100011.91;;;8.82;79.99
69223;BME280;56514;51.816;-0.026;2023-03-12T02:42:54;100007.03;;;8.88;79.81
69223;BME280;56514;51.816;-0.026;2023-03-12T02:45:39;100009.16;;;8.83;80.11
69223;BME280;56514;51.816;-0.026;2023-03-12T02:48:24;100008.31;;;8.83;80.14
69223;BME280;56514;51.816;-0.026;2023-03-12T02:51:09;100011.91;;;8.82;80.45
69223;BME280;56514;51.816;-0.026;2023-03-12T02:53:54;100002.38;;;8.92;80.75
69223;BME280;56514;51.816;-0.026;2023-03-12T02:56:40;100008.66;;;8.78;81.11
69223;BME280;56514;51.816;-0.026;2023-03-12T02:59:25;100005.06;;;8.79;80.85
69223;BME280;56514;51.816;-0.026;2023-03-12T03:02:10;99996.25;;;8.80;81.03
69223;BME280;56514;51.816;-0.026;2023-03-12T03:04:56;100002.44;;;8.79;81.01
69223;BME280;56514;51.816;-0.026;2023-03-12T03:07:41;100006.53;;;8.83;80.92
69223;BME280;56514;51.816;-0.026;2023-03-12T03:10:26;100003.16;;;8.81;81.29
69223;BME280;56514;51.816;-0.026;2023-03-12T03:13:11;100003.47;;;8.89;80.49
69223;BME280;56514;51.816;-0.026;2023-03-12T03:15:56;100004.38;;;8.88;80.81
69223;BME280;56514;51.816;-0.026;2023-03-12T03:18:43;99995.16;;;8.83;81.06
69223;BME280;56514;51.816;-0.026;2023-03-12T03:21:28;100000.38;;;8.96;80.78
69223;BME280;56514;51.816;-0.026;2023-03-12T03:24:13;99991.13;;;8.90;81.02
69223;BME280;56514;51.816;-0.026;2023-03-12T03:26:57;99994.09;;;8.85;81.29
69223;BME280;56514;51.816;-0.026;2023-03-12T03:29:44;99994.09;;;8.85;81.10
69223;BME280;56514;51.816;-0.026;2023-03-12T03:32:29;99984.25;;;8.76;81.47
69223;BME280;56514;51.816;-0.026;2023-03-12T03:35:14;99988.91;;;8.73;81.05
69223;BME280;56514;51.816;-0.026;2023-03-12T03:37:59;100001.34;;;8.58;81.83
69223;BME280;56514;51.816;-0.026;2023-03-12T03:40:44;100012.38;;;8.63;81.84
69223;BME280;56514;51.816;-0.026;2023-03-12T03:43:29;100006.16;;;8.64;81.69
69223;BME280;56514;51.816;-0.026;2023-03-12T03:46:14;100012.69;;;8.59;81.60
69223;BME280;56514;51.816;-0.026;2023-03-12T03:48:59;100025.22;;;8.55;82.09
69223;BME280;56514;51.816;-0.026;2023-03-12T03:51:44;100030.38;;;8.57;82.16
69223;BME280;56514;51.816;-0.026;2023-03-12T03:54:28;100036.59;;;8.56;82.04
69223;BME280;56514;51.816;-0.026;2023-03-12T03:57:14;100041.00;;;8.43;82.14
69223;BME280;56514;51.816;-0.026;2023-03-12T03:59:59;100052.03;;;8.48;82.17
69223;BME280;56514;51.816;-0.026;2023-03-12T04:02:44;100050.16;;;8.37;82.43
69223;BME280;56514;51.816;-0.026;2023-03-12T04:05:29;100065.94;;;8.37;82.62
69223;BME280;56514;51.816;-0.026;2023-03-12T04:08:14;100075.06;;;8.44;82.60
69223;BME280;56514;51.816;-0.026;2023-03-12T04:11:05;100069.41;;;8.38;82.98
69223;BME280;56514;51.816;-0.026;2023-03-12T04:13:50;100078.09;;;8.26;83.28
69223;BME280;56514;51.816;-0.026;2023-03-12T04:16:35;100076.75;;;8.33;83.40
69223;BME280;56514;51.816;-0.026;2023-03-12T04:19:21;100083.06;;;8.30;83.44
69223;BME280;56514;51.816;-0.026;2023-03-12T04:22:05;100085.88;;;8.27;83.95
69223;BME280;56514;51.816;-0.026;2023-03-12T04:24:50;100082.75;;;8.35;83.48
69223;BME280;56514;51.816;-0.026;2023-03-12T04:27:35;100080.63;;;8.27;83.90
69223;BME280;56514;51.816;-0.026;2023-03-12T04:30:20;100088.50;;;8.40;83.19
69223;BME280;56514;51.816;-0.026;2023-03-12T04:33:06;100090.53;;;8.36;83.82
69223;BME280;56514;51.816;-0.026;2023-03-12T04:35:52;100093.78;;;8.52;83.52
69223;BME280;56514;51.816;-0.026;2023-03-12T04:38:37;100095.13;;;8.58;83.28
69223;BME280;56514;51.816;-0.026;2023-03-12T04:41:22;100099.63;;;8.68;83.70
69223;BME280;56514;51.816;-0.026;2023-03-12T04:44:06;100095.75;;;8.61;83.55
69223;BME280;56514;51.816;-0.026;2023-03-12T04:46:51;100092.06;;;8.64;83.78
69223;BME280;56514;51.816;-0.026;2023-03-12T04:49:37;100097.66;;;8.59;83.73
69223;BME280;56514;51.816;-0.026;2023-03-12T04:52:24;100095.13;;;8.70;83.37
69223;BME280;56514;51.816;-0.026;2023-03-12T04:55:10;100104.50;;;8.62;83.76
69223;BME280;56514;51.816;-0.026;2023-03-12T04:57:55;100116.38;;;8.55;83.87
69223;BME280;56514;51.816;-0.026;2023-03-12T05:00:40;100115.94;;;8.61;84.04
69223;BME280;56514;51.816;-0.026;2023-03-12T05:03:26;100116.91;;;8.60;83.85
69223;BME280;56514;51.816;-0.026;2023-03-12T05:06:11;100122.47;;;8.68;83.87
69223;BME280;56514;51.816;-0.026;2023-03-12T05:08:56;100123.72;;;8.75;83.68
69223;BME280;56514;51.816;-0.026;2023-03-12T05:11:40;100130.13;;;8.83;83.60
69223;BME280;56514;51.816;-0.026;2023-03-12T05:14:25;100133.91;;;8.92;83.56
69223;BME280;56514;51.816;-0.026;2023-03-12T05:17:10;100132.13;;;8.93;83.43
69223;BME280;56514;51.816;-0.026;2023-03-12T05:19:55;100145.56;;;9.01;83.26
69223;BME280;56514;51.816;-0.026;2023-03-12T05:22:40;100153.66;;;9.10;83.05
69223;BME280;56514;51.816;-0.026;2023-03-12T05:25:25;100149.88;;;9.14;82.94
69223;BME280;56514;51.816;-0.026;2023-03-12T05:28:10;100156.81;;;9.39;82.02
69223;BME280;56514;51.816;-0.026;2023-03-12T05:30:56;100162.38;;;9.47;81.58
69223;BME280;56514;51.816;-0.026;2023-03-12T05:33:43;100157.56;;;9.41;81.78
69223;BME280;56514;51.816;-0.026;2023-03-12T05:36:28;100151.34;;;9.42;81.54
69223;BME280;56514;51.816;-0.026;2023-03-12T05:39:13;100155.34;;;9.47;81.50
69223;BME280;56514;51.816;-0.026;2023-03-12T05:41:58;100164.50;;;9.42;81.17
69223;BME280;56514;51.816;-0.026;2023-03-12T05:44:43;100161.34;;;9.49;81.03
69223;BME280;56514;51.816;-0.026;2023-03-12T05:47:27;100161.22;;;9.51;81.02
69223;BME280;56514;51.816;-0.026;2023-03-12T05:50:12;100173.28;;;9.66;80.26
69223;BME280;56514;51.816;-0.026;2023-03-12T05:52:59;100166.50;;;9.51;80.56
69223;BME280;56514;51.816;-0.026;2023-03-12T05:55:44;100166.41;;;9.40;81.02
69223;BME280;56514;51.816;-0.026;2023-03-12T05:58:29;100171.03;;;9.49;80.40
69223;BME280;56514;51.816;-0.026;2023-03-12T06:01:18;100174.50;;;9.49;80.65
69223;BME280;56514;51.816;-0.026;2023-03-12T06:04:03;100163.97;;;9.49;80.42
69223;BME280;56514;51.816;-0.026;2023-03-12T06:06:48;100163.88;;;9.51;80.54
69223;BME280;56514;51.816;-0.026;2023-03-12T06:09:34;100164.06;;;9.48;80.73
69223;BME280;56514;51.816;-0.026;2023-03-12T06:12:19;100163.13;;;9.49;80.23
69223;BME280;56514;51.816;-0.026;2023-03-12T06:15:04;100161.13;;;9.52;80.76
69223;BME280;56514;51.816;-0.026;2023-03-12T06:17:49;100152.06;;;9.44;80.78
69223;BME280;56514;51.816;-0.026;2023-03-12T06:20:34;100151.75;;;9.48;80.40
69223;BME280;56514;51.816;-0.026;2023-03-12T06:23:19;100130.56;;;9.50;80.23
69223;BME280;56514;51.816;-0.026;2023-03-12T06:26:04;100141.03;;;9.39;80.29
69223;BME280;56514;51.816;-0.026;2023-03-12T06:28:50;100140.91;;;9.40;80.05
69223;BME280;56514;51.816;-0.026;2023-03-12T06:31:35;100151.63;;;9.26;81.25
69223;BME280;56514;51.816;-0.026;2023-03-12T06:34:20;100155.25;;;9.36;80.96
69223;BME280;56514;51.816;-0.026;2023-03-12T06:37:05;100156.13;;;9.37;80.78
69223;BME280;56514;51.816;-0.026;2023-03-12T06:39:50;100150.28;;;9.44;80.50
69223;BME280;56514;51.816;-0.026;2023-03-12T06:42:36;100151.75;;;9.48;80.22
69223;BME280;56514;51.816;-0.026;2023-03-12T06:45:20;100157.75;;;9.50;80.21
69223;BME280;56514;51.816;-0.026;2023-03-12T06:48:05;100160.66;;;9.58;79.96
69223;BME280;56514;51.816;-0.026;2023-03-12T06:50:50;100165.19;;;9.56;80.14
69223;BME280;56514;51.816;-0.026;2023-03-12T06:53:36;100175.09;;;9.53;79.71
69223;BME280;56514;51.816;-0.026;2023-03-12T06:56:21;100177.66;;;9.42;79.91
69223;BME280;56514;51.816;-0.026;2023-03-12T06:59:06;100182.88;;;9.54;80.09
69223;BME280;56514;51.816;-0.026;2023-03-12T07:01:51;100188.16;;;9.54;80.06
69223;BME280;56514;51.816;-0.026;2023-03-12T07:04:36;100184.59;;;9.55;80.21
69223;BME280;56514;51.816;-0.026;2023-03-12T07:07:21;100201.06;;;9.70;79.39
69223;BME280;56514;51.816;-0.026;2023-03-12T07:10:06;100170.69;;;9.77;79.16
69223;BME280;56514;51.816;-0.026;2023-03-12T07:12:51;100180.28;;;9.78;79.08
69223;BME280;56514;51.816;-0.026;2023-03-12T07:15:36;100191.41;;;9.81;79.60
69223;BME280;56514;51.816;-0.026;2023-03-12T07:18:20;100194.63;;;9.97;79.04
69223;BME280;56514;51.816;-0.026;2023-03-12T07:21:05;100204.72;;;10.03;78.63
69223;BME280;56514;51.816;-0.026;2023-03-12T07:23:51;100207.78;;;10.10;78.56
69223;BME280;56514;51.816;-0.026;2023-03-12T07:26:37;100198.78;;;10.12;78.51
69223;BME280;56514;51.816;-0.026;2023-03-12T07:29:21;100197.03;;;10.24;78.08
69223;BME280;56514;51.816;-0.026;2023-03-12T07:32:06;100200.66;;;10.34;77.59
69223;BME280;56514;51.816;-0.026;2023-03-12T07:34:51;100205.34;;;10.41;77.40
69223;BME280;56514;51.816;-0.026;2023-03-12T07:37:36;100205.13;;;10.44;76.92
69223;BME280;56514;51.816;-0.026;2023-03-12T07:40:20;100212.19;;;10.44;77.16
69223;BME280;56514;51.816;-0.026;2023-03-12T07:43:06;100224.59;;;10.65;76.36
69223;BME280;56514;51.816;-0.026;2023-03-12T07:45:56;100222.81;;;10.66;75.93
69223;BME280;56514;51.816;-0.026;2023-03-12T07:48:41;100227.31;;;10.53;76.66
69223;BME280;56514;51.816;-0.026;2023-03-12T07:51:26;100213.31;;;10.63;76.52
69223;BME280;56514;51.816;-0.026;2023-03-12T07:54:11;100227.75;;;10.82;75.11
69223;BME280;56514;51.816;-0.026;2023-03-12T07:56:59;100220.19;;;10.88;74.83
69223;BME280;56514;51.816;-0.026;2023-03-12T07:59:44;100219.25;;;10.89;74.63
69223;BME280;56514;51.816;-0.026;2023-03-12T08:02:30;100227.63;;;10.83;74.56
69223;BME280;56514;51.816;-0.026;2023-03-12T08:05:16;100218.16;;;10.92;74.58
69223;BME280;56514;51.816;-0.026;2023-03-12T08:08:04;100220.81;;;10.92;74.24
69223;BME280;56514;51.816;-0.026;2023-03-12T08:10:51;100218.03;;;10.82;75.00
69223;BME280;56514;51.816;-0.026;2023-03-12T08:13:39;100214.06;;;10.99;74.06
69223;BME280;56514;51.816;-0.026;2023-03-12T08:16:27;100225.00;;;11.05;73.51
69223;BME280;56514;51.816;-0.026;2023-03-12T08:19:11;100232.34;;;11.13;73.98
69223;BME280;56514;51.816;-0.026;2023-03-12T08:21:56;100236.41;;;11.28;73.58
69223;BME280;56514;51.816;-0.026;2023-03-12T08:24:44;100241.56;;;11.29;72.75
69223;BME280;56514;51.816;-0.026;2023-03-12T08:27:30;100243.50;;;11.27;73.15
69223;BME280;56514;51.816;-0.026;2023-03-12T08:30:15;100244.81;;;11.22;73.37
69223;BME280;56514;51.816;-0.026;2023-03-12T08:33:00;100240.03;;;11.38;72.48
69223;BME280;56514;51.816;-0.026;2023-03-12T08:35:45;100248.06;;;11.36;72.75
69223;BME280;56514;51.816;-0.026;2023-03-12T08:38:30;100237.16;;;11.41;72.02
69223;BME280;56514;51.816;-0.026;2023-03-12T08:41:15;100233.16;;;11.35;72.54
69223;BME280;56514;51.816;-0.026;2023-03-12T08:44:00;100231.50;;;11.45;72.17
69223;BME280;56514;51.816;-0.026;2023-03-12T08:46:44;100227.16;;;11.55;71.67
69223;BME280;56514;51.816;-0.026;2023-03-12T08:49:31;100226.56;;;11.63;71.49
69223;BME280;56514;51.816;-0.026;2023-03-12T08:52:15;100237.50;;;11.69;70.82
69223;BME280;56514;51.816;-0.026;2023-03-12T08:55:00;100252.59;;;11.78;70.24
69223;BME280;56514;51.816;-0.026;2023-03-12T08:57:46;100237.59;;;11.79;70.59
69223;BME280;56514;51.816;-0.026;2023-03-12T09:00:32;100234.34;;;11.86;69.72
69223;BME280;56514;51.816;-0.026;2023-03-12T09:03:17;100221.22;;;11.96;70.03
69223;BME280;56514;51.816;-0.026;2023-03-12T09:06:08;100232.78;;;12.26;68.84
69223;BME280;56514;51.816;-0.026;2023-03-12T09:09:01;100234.44;;;12.27;68.58
69223;BME280;56514;51.816;-0.026;2023-03-12T09:11:49;100244.25;;;12.36;67.55
69223;BME280;56514;51.816;-0.026;2023-03-12T09:14:34;100233.47;;;12.28;68.08
69223;BME280;56514;51.816;-0.026;2023-03-12T09:17:19;100243.53;;;12.34;67.40
69223;BME280;56514;51.816;-0.026;2023-03-12T09:20:06;100246.66;;;12.39;67.50
69223;BME280;56514;51.816;-0.026;2023-03-12T09:22:52;100246.41;;;12.43;67.80
69223;BME280;56514;51.816;-0.026;2023-03-12T09:25:44;100250.16;;;12.61;66.60
69223;BME280;56514;51.816;-0.026;2023-03-12T09:28:29;100246.41;;;12.63;66.36
69223;BME280;56514;51.816;-0.026;2023-03-12T09:31:14;100244.72;;;12.62;67.53
69223;BME280;56514;51.816;-0.026;2023-03-12T09:33:59;100256.25;;;12.72;67.06
69223;BME280;56514;51.816;-0.026;2023-03-12T09:36:43;100252.56;;;12.84;65.97
69223;BME280;56514;51.816;-0.026;2023-03-12T09:39:28;100259.59;;;12.95;65.83
69223;BME280;56514;51.816;-0.026;2023-03-12T09:42:22;100250.88;;;13.04;65.68
69223;BME280;56514;51.816;-0.026;2023-03-12T09:45:15;100250.69;;;13.16;64.49
69223;BME280;56514;51.816;-0.026;2023-03-12T09:48:05;100265.59;;;13.17;64.64
69223;BME280;56514;51.816;-0.026;2023-03-12T09:50:50;100253.09;;;13.29;63.53
69223;BME280;56514;51.816;-0.026;2023-03-12T09:54:00;100254.66;;;13.31;64.47
69223;BME280;56514;51.816;-0.026;2023-03-12T09:56:45;100253.66;;;13.62;63.16
69223;BME280;56514;51.816;-0.026;2023-03-12T09:59:31;100265.69;;;13.76;63.54
69223;BME280;56514;51.816;-0.026;2023-03-12T10:08:35;100250.41;;;13.98;61.77
69223;BME280;56514;51.816;-0.026;2023-03-12T10:17:48;100236.16;;;14.18;61.30
69223;BME280;56514;51.816;-0.026;2023-03-12T10:20:52;100240.69;;;14.37;60.22
69223;BME280;56514;51.816;-0.026;2023-03-12T10:26:45;100249.34;;;14.30;61.15
69223;BME280;56514;51.816;-0.026;2023-03-12T10:29:36;100236.09;;;14.49;59.33
69223;BME280;56514;51.816;-0.026;2023-03-12T10:32:39;100238.72;;;14.58;59.59
69223;BME280;56514;51.816;-0.026;2023-03-12T10:35:27;100234.66;;;14.73;58.24
69223;BME280;56514;51.816;-0.026;2023-03-12T10:38:22;100221.25;;;14.46;59.63
69223;BME280;56514;51.816;-0.026;2023-03-12T10:41:14;100206.59;;;14.52;58.12
69223;BME280;56514;51.816;-0.026;2023-03-12T10:44:05;100209.66;;;14.57;58.90
69223;BME280;56514;51.816;-0.026;2023-03-12T10:47:06;100207.00;;;14.66;59.11
69223;BME280;56514;51.816;-0.026;2023-03-12T10:49:52;100198.59;;;14.80;58.56
69223;BME280;56514;51.816;-0.026;2023-03-12T10:52:37;100194.94;;;14.81;58.29
69223;BME280;56514;51.816;-0.026;2023-03-12T10:55:25;100193.69;;;14.85;57.20
69223;BME280;56514;51.816;-0.026;2023-03-12T10:58:24;100189.78;;;14.80;57.89
69223;BME280;56514;51.816;-0.026;2023-03-12T11:01:30;100175.47;;;14.90;58.20
69223;BME280;56514;51.816;-0.026;2023-03-12T11:04:16;100172.00;;;15.26;56.78
69223;BME280;56514;51.816;-0.026;2023-03-12T11:07:15;100159.69;;;15.25;56.41
69223;BME280;56514;51.816;-0.026;2023-03-12T11:10:23;100157.53;;;15.11;56.95
69223;BME280;56514;51.816;-0.026;2023-03-12T11:13:21;100182.66;;;15.17;55.76
69223;BME280;56514;51.816;-0.026;2023-03-12T11:19:02;100172.06;;;15.07;56.91
69223;BME280;56514;51.816;-0.026;2023-03-12T11:21:55;100180.78;;;15.27;56.36
69223;BME280;56514;51.816;-0.026;2023-03-12T11:24:58;100181.47;;;15.38;56.18
69223;BME280;56514;51.816;-0.026;2023-03-12T11:27:48;100186.38;;;15.33;56.22
69223;BME280;56514;51.816;-0.026;2023-03-12T11:30:38;100171.94;;;15.36;56.46
69223;BME280;56514;51.816;-0.026;2023-03-12T11:33:23;100176.03;;;15.57;57.27
69223;BME280;56514;51.816;-0.026;2023-03-12T11:36:38;100167.91;;;16.04;56.40
69223;BME280;56514;51.816;-0.026;2023-03-12T11:42:51;100178.31;;;16.15;55.15
69223;BME280;56514;51.816;-0.026;2023-03-12T11:48:59;100187.25;;;15.78;54.97
69223;BME280;56514;51.816;-0.026;2023-03-12T11:57:58;100165.59;;;15.91;55.55
69223;BME280;56514;51.816;-0.026;2023-03-12T12:04:13;100162.25;;;15.71;55.58
69223;BME280;56514;51.816;-0.026;2023-03-12T12:13:16;100175.03;;;15.86;54.42
69223;BME280;56514;51.816;-0.026;2023-03-12T12:22:41;100177.19;;;16.00;54.92
69223;BME280;56514;51.816;-0.026;2023-03-12T12:37:45;100176.25;;;15.73;54.94
69223;BME280;56514;51.816;-0.026;2023-03-12T12:43:38;100163.75;;;15.74;55.46
69223;BME280;56514;51.816;-0.026;2023-03-12T12:46:38;100167.75;;;15.88;54.68
69223;BME280;56514;51.816;-0.026;2023-03-12T12:49:42;100154.91;;;15.83;55.15
69223;BME280;56514;51.816;-0.026;2023-03-12T12:52:30;100147.88;;;16.17;54.58
69223;BME280;56514;51.816;-0.026;2023-03-12T12:55:23;100148.00;;;16.68;53.16
69223;BME280;56514;51.816;-0.026;2023-03-12T12:58:17;100122.91;;;16.79;52.39
69223;BME280;56514;51.816;-0.026;2023-03-12T13:01:05;100123.56;;;16.73;52.79
69223;BME280;56514;51.816;-0.026;2023-03-12T13:03:58;100131.25;;;17.09;51.60
69223;BME280;56514;51.816;-0.026;2023-03-12T13:09:57;100125.59;;;16.87;51.94
69223;BME280;56514;51.816;-0.026;2023-03-12T13:12:49;100119.88;;;16.74;52.47
69223;BME280;56514;51.816;-0.026;2023-03-12T13:15:39;100119.19;;;16.72;52.42
69223;BME280;56514;51.816;-0.026;2023-03-12T13:18:28;100114.31;;;16.93;51.38
69223;BME280;56514;51.816;-0.026;2023-03-12T13:21:40;100113.25;;;17.11;50.44
69223;BME280;56514;51.816;-0.026;2023-03-12T13:27:37;100107.41;;;16.74;52.01
69223;BME280;56514;51.816;-0.026;2023-03-12T13:33:19;100095.47;;;16.53;52.03
69223;BME280;56514;51.816;-0.026;2023-03-12T13:36:22;100087.41;;;16.45;52.57
69223;BME280;56514;51.816;-0.026;2023-03-12T13:41:55;100094.94;;;16.49;52.74
69223;BME280;56514;51.816;-0.026;2023-03-12T13:44:44;100088.78;;;16.74;52.05
69223;BME280;56514;51.816;-0.026;2023-03-12T13:47:33;100082.81;;;16.80;52.27
69223;BME280;56514;51.816;-0.026;2023-03-12T13:50:21;100081.38;;;16.94;52.37
69223;BME280;56514;51.816;-0.026;2023-03-12T13:53:07;100072.09;;;17.06;51.19
69223;BME280;56514;51.816;-0.026;2023-03-12T13:56:15;100060.28;;;17.16;51.08
69223;BME280;56514;51.816;-0.026;2023-03-12T13:59:12;100059.25;;;17.75;51.29
69223;BME280;56514;51.816;-0.026;2023-03-12T14:02:04;100041.91;;;18.43;47.63
69223;BME280;56514;51.816;-0.026;2023-03-12T14:04:49;100038.56;;;18.49;47.66
69223;BME280;56514;51.816;-0.026;2023-03-12T14:07:53;100034.19;;;18.56;46.89
69223;BME280;56514;51.816;-0.026;2023-03-12T14:16:44;100028.25;;;17.82;47.93
69223;BME280;56514;51.816;-0.026;2023-03-12T14:19:33;100028.75;;;17.54;49.11
69223;BME280;56514;51.816;-0.026;2023-03-12T14:22:19;100027.09;;;17.44;49.37
69223;BME280;56514;51.816;-0.026;2023-03-12T14:25:16;100035.16;;;17.27;49.55
69223;BME280;56514;51.816;-0.026;2023-03-12T14:28:20;100039.13;;;17.15;50.08
69223;BME280;56514;51.816;-0.026;2023-03-12T14:31:11;100023.97;;;17.07;49.75
69223;BME280;56514;51.816;-0.026;2023-03-12T14:40:37;100012.75;;;16.88;48.63
69223;BME280;56514;51.816;-0.026;2023-03-12T14:43:32;100013.38;;;16.90;48.69
69223;BME280;56514;51.816;-0.026;2023-03-12T14:46:23;100007.56;;;16.86;49.23
69223;BME280;56514;51.816;-0.026;2023-03-12T14:49:18;100006.47;;;17.05;48.52
69223;BME280;56514;51.816;-0.026;2023-03-12T14:52:04;100000.31;;;17.20;47.60
69223;BME280;56514;51.816;-0.026;2023-03-12T14:55:02;100009.47;;;17.10;48.55
69223;BME280;56514;51.816;-0.026;2023-03-12T14:58:02;99995.00;;;17.12;48.53
69223;BME280;56514;51.816;-0.026;2023-03-12T15:00:57;99990.84;;;17.18;48.18
69223;BME280;56514;51.816;-0.026;2023-03-12T15:03:48;99981.16;;;17.09;47.45
69223;BME280;56514;51.816;-0.026;2023-03-12T15:07:00;99980.13;;;16.94;48.15
69223;BME280;56514;51.816;-0.026;2023-03-12T15:09:49;99967.28;;;16.89;47.15
69223;BME280;56514;51.816;-0.026;2023-03-12T15:12:36;99975.38;;;16.64;48.51
69223;BME280;56514;51.816;-0.026;2023-03-12T15:15:42;99972.06;;;16.70;48.33
69223;BME280;56514;51.816;-0.026;2023-03-12T15:18:30;99983.69;;;16.61;48.70
69223;BME280;56514;51.816;-0.026;2023-03-12T15:21:16;99975.97;;;16.58;48.75
69223;BME280;56514;51.816;-0.026;2023-03-12T15:24:02;99984.47;;;16.28;49.75
69223;BME280;56514;51.816;-0.026;2023-03-12T15:26:47;99993.34;;;16.11;50.63
69223;BME280;56514;51.816;-0.026;2023-03-12T15:29:39;99985.28;;;15.77;51.93
69223;BME280;56514;51.816;-0.026;2023-03-12T15:32:26;99980.09;;;15.50;53.55
69223;BME280;56514;51.816;-0.026;2023-03-12T15:35:12;99989.28;;;15.38;53.98
69223;BME280;56514;51.816;-0.026;2023-03-12T15:37:58;99992.88;;;15.19;55.16
69223;BME280;56514;51.816;-0.026;2023-03-12T15:40:49;99988.19;;;15.13;55.40
69223;BME280;56514;51.816;-0.026;2023-03-12T15:43:34;99963.19;;;15.24;54.54
69223;BME280;56514;51.816;-0.026;2023-03-12T15:46:22;99949.41;;;15.20;55.11
69223;BME280;56514;51.816;-0.026;2023-03-12T15:49:26;99942.72;;;15.77;54.40
69223;BME280;56514;51.816;-0.026;2023-03-12T15:52:35;99928.84;;;17.16;50.34
69223;BME280;56514;51.816;-0.026;2023-03-12T15:55:23;99937.41;;;17.52;49.76
69223;BME280;56514;51.816;-0.026;2023-03-12T16:01:17;99921.88;;;17.15;49.39
69223;BME280;56514;51.816;-0.026;2023-03-12T16:04:07;99914.31;;;16.78;50.50
69223;BME280;56514;51.816;-0.026;2023-03-12T16:06:52;99912.59;;;16.20;52.28
69223;BME280;56514;51.816;-0.026;2023-03-12T16:09:37;99910.69;;;16.04;52.32
69223;BME280;56514;51.816;-0.026;2023-03-12T16:12:23;99904.16;;;15.73;53.30
69223;BME280;56514;51.816;-0.026;2023-03-12T16:15:16;99902.91;;;15.59;54.31